EW9837 Weather Reports


time (UTC)temp
F
wind
direction
speed
knots
gust
knots
rain 1hr
in
rain 24hr
in
rain mn
in
humidity
%
barometer
mb
20210723151537 69 142 1.7 0.0 0.00 0.00 0.00 50 1025.5
20210723150040 66 170 2.6 0.0 0.00 0.00 0.00 54 1025.5
20210723144535 64 151 2.6 0.0 0.00 0.00 0.00 58 1025.5
20210723143035 59 162 0.9 0.0 0.00 0.00 0.00 68 1025.5
20210723141544 56 166 1.7 0.0 0.00 0.00 0.00 71 1025.5
20210723140039 54 160 2.6 0.0 0.00 0.00 0.00 70 1025.2
20210723134538 52 194 2.6 0.0 0.00 0.00 0.00 71 1025.2
20210723133032 50 165 4.3 0.0 0.00 0.00 0.00 73 1024.8
20210723131536 51 168 3.5 0.0 0.00 0.00 0.00 70 1024.8
20210723130034 51 149 3.5 0.0 0.00 0.00 0.00 70 1024.5
20210723124538 51 171 3.5 0.0 0.00 0.00 0.00 68 1024.5
20210723123036 52 148 2.6 0.0 0.00 0.00 0.00 66 1024.5
20210723121541 54 189 2.6 0.0 0.00 0.00 0.00 64 1024.5
20210723120039 54 122 1.7 0.0 0.00 0.00 0.00 67 1024.1
20210723114540 53 278 0.9 0.0 0.00 0.00 0.00 72 1023.8
20210723113050 51 193 2.6 0.0 0.00 0.00 0.00 77 1024.1
20210723111537 48 161 2.6 0.0 0.00 0.00 0.00 83 1024.1
20210723110030 47 185 0.9 0.0 0.00 0.00 0.00 83 1024.1
20210723104532 47 160 3.5 0.0 0.00 0.00 0.00 81 1023.8
20210723103041 48 150 2.6 0.0 0.00 0.00 0.00 80 1023.8
20210723101538 48 157 2.6 0.0 0.00 0.00 0.00 80 1023.8
20210723100039 48 164 1.7 0.0 0.00 0.00 0.00 79 1023.8
20210723094537 48 165 2.6 0.0 0.00 0.00 0.00 77 1023.8
20210723093033 49 154 3.5 0.0 0.00 0.00 0.00 77 1023.8
20210723091539 49 148 1.7 0.0 0.00 0.00 0.00 75 1023.8
20210723090047 50 141 2.6 0.0 0.00 0.00 0.00 73 1023.8
20210723084544 50 144 2.6 0.0 0.00 0.00 0.00 75 1023.4
20210723083039 49 132 0.9 0.0 0.00 0.00 0.00 80 1023.4
20210723081536 48 190 2.6 0.0 0.00 0.00 0.00 82 1023.4
20210723080035 48 189 2.6 0.0 0.00 0.00 0.00 83 1023.4
20210723074541 49 183 2.6 0.0 0.00 0.00 0.00 83 1023.4
20210723073038 48 179 3.5 0.0 0.00 0.00 0.00 85 1023.4
20210723071532 48 177 2.6 0.0 0.00 0.00 0.00 84 1023.4
20210723070035 48 173 2.6 0.0 0.00 0.00 0.00 84 1023.4
20210723064545 49 175 3.5 0.0 0.00 0.00 0.00 83 1023.1
20210723063107 49 167 3.5 0.0 0.00 0.00 0.00 81 1023.4
20210723061532 51 172 0.9 0.0 0.00 0.00 0.00 78 1023.1
20210723060041 53 146 1.7 0.0 0.00 0.00 0.00 74 1023.1
20210723054533 55 147 1.7 0.0 0.00 0.00 0.00 71 1023.1
20210723053035 56 125 0.9 0.0 0.00 0.00 0.00 68 1023.1
20210723051532 56 213 1.7 0.0 0.00 0.00 0.00 68 1023.1
20210723050103 55 238 0.9 0.0 0.00 0.00 0.00 69 1023.1
20210723044535 56 186 0.9 0.0 0.00 0.00 0.00 66 1022.7
20210723043046 59 200 0.9 0.0 0.00 0.00 0.00 61 1022.7
20210723041533 61 227 0.9 0.0 0.00 0.00 0.00 53 1022.7
20210723040039 61 241 2.6 0.0 0.00 0.00 0.00 53 1022.3
20210723034530 63 246 0.9 0.0 0.00 0.00 0.00 50 1022.3
20210723033033 65 265 1.7 0.0 0.00 0.00 0.00 46 1022.3
20210723031539 66 255 2.6 0.0 0.00 0.00 0.00 43 1022.0
20210723030033 68 282 3.5 0.0 0.00 0.00 0.00 40 1022.0
20210723024532 70 288 3.5 0.0 0.00 0.00 0.00 37 1021.6
20210723023033 71 316 3.5 0.0 0.00 0.00 0.00 35 1021.3
20210723021538 72 320 3.5 0.0 0.00 0.00 0.00 32 1021.3
20210723020043 73 330 3.5 0.0 0.00 0.00 0.00 31 1020.9
20210723014535 74 328 3.5 0.0 0.00 0.00 0.00 31 1020.9
20210723013043 74 349 2.6 0.0 0.00 0.00 0.00 31 1020.9
20210723011535 75 350 7.8 0.0 0.00 0.00 0.00 31 1020.9
20210723010037 75 350 8.7 0.0 0.00 0.00 0.00 30 1020.6
20210723004543 76 338 5.2 0.0 0.00 0.00 0.00 31 1020.6
20210723003035 75 333 7.8 0.0 0.00 0.00 0.00 31 1020.6
20210723001540 76 302 5.2 0.0 0.00 0.00 0.00 32 1020.6
20210723000039 76 293 4.3 0.0 0.00 0.00 0.00 33 1020.6
20210722234535 77 322 6.1 0.0 0.00 0.00 0.00 32 1020.6
20210722233032 77 302 4.3 0.0 0.00 0.00 0.00 33 1020.6
20210722231542 78 303 4.3 0.0 0.00 0.00 0.00 34 1020.6
20210722230033 78 300 3.5 0.0 0.00 0.00 0.00 35 1020.6
20210722224540 79 335 7.8 0.0 0.00 0.00 0.00 34 1020.6
20210722223058 79 28 3.5 0.0 0.00 0.00 0.00 34 1020.9
20210722221534 77 53 5.2 0.0 0.00 0.00 0.00 36 1020.9
20210722220039 78 67 4.3 0.0 0.00 0.00 0.00 35 1020.9
20210722214537 77 59 5.2 0.0 0.00 0.00 0.00 35 1020.9
20210722213031 78 56 4.3 0.0 0.00 0.00 0.00 36 1020.9
20210722211538 75 71 3.5 0.0 0.00 0.00 0.00 38 1021.3
20210722210031 76 69 3.5 0.0 0.00 0.00 0.00 37 1021.3
20210722204532 75 64 3.5 0.0 0.00 0.00 0.00 38 1021.3
20210722203034 76 55 4.3 0.0 0.00 0.00 0.00 37 1021.6
20210722201533 76 49 4.3 0.0 0.00 0.00 0.00 38 1021.6
20210722200041 75 58 4.3 0.0 0.00 0.00 0.00 38 1022.0
20210722194536 75 40 5.2 0.0 0.00 0.00 0.00 38 1022.0
20210722193033 75 47 5.2 0.0 0.00 0.00 0.00 39 1022.0
20210722191539 74 52 3.5 0.0 0.00 0.00 0.00 40 1022.0
20210722190043 74 46 3.5 0.0 0.00 0.00 0.00 41 1022.3
20210722184537 72 53 3.5 0.0 0.00 0.00 0.00 44 1022.3
20210722183113 71 66 3.5 0.0 0.00 0.00 0.00 43 1022.3
20210722181553 73 50 3.5 0.0 0.00 0.00 0.00 41 1022.3
20210722180043 72 46 3.5 0.0 0.00 0.00 0.00 42 1022.3
20210722174536 71 41 4.3 0.0 0.00 0.00 0.00 41 1022.3
20210722173038 71 35 4.3 0.0 0.00 0.00 0.00 41 1022.3
20210722171539 72 40 5.2 0.0 0.00 0.00 0.00 39 1022.3
20210722170038 73 54 2.6 0.0 0.00 0.00 0.00 37 1022.3
20210722164533 70 65 2.6 0.0 0.00 0.00 0.00 39 1022.7
20210722163035 70 82 1.7 0.0 0.00 0.00 0.00 39 1022.7
20210722161540 68 91 1.7 0.0 0.00 0.00 0.00 42 1022.7
20210722160039 71 46 1.7 0.0 0.00 0.00 0.00 43 1022.7
20210722154554 71 49 2.6 0.0 0.00 0.00 0.00 39 1022.7
20210722153118 71 140 0.9 0.0 0.00 0.00 0.00 41 1022.7